Time;durP1;ratioP1;P1;durP2;ratioP2;P2;SDS_P1;SDS_P2;PMS_P1;PMS_P2;Temp;Humidity;BMP_temperature;BMP_pressure;BME280_temperature;BME280_humidity;BME280_pressure;Samples;Min_cycle;Max_cycle;Signal;HPM_P1;HPM_P2
2024/04/24 00:02:19;;;;;;;;;19.50;10.00;;;;;10.87;50.56;101519.34;5313459;26;65475;-76
2024/04/24 00:04:45;;;;;;;;;14.75;12.50;;;;;10.91;50.20;101525.97;5266539;26;62137;-76
2024/04/24 00:07:10;;;;;;;;;11.75;10.25;;;;;10.89;50.82;101514.72;5309173;26;44458;-75
2024/04/24 00:09:35;;;;;;;;;9.50;9.50;;;;;10.89;50.83;101517.34;5291153;26;44095;-74
2024/04/24 00:12:01;;;;;;;;;10.25;8.25;;;;;10.86;50.49;101510.59;5281293;26;66246;-73
2024/04/24 00:14:27;;;;;;;;;16.00;13.25;;;;;10.91;49.86;101510.91;5254342;26;46503;-74
2024/04/24 00:16:53;;;;;;;;;11.00;9.50;;;;;10.88;50.31;101505.09;5269004;26;44358;-75
2024/04/24 00:19:19;;;;;;;;;16.25;11.75;;;;;10.83;51.01;101488.84;5268285;26;43916;-75
2024/04/24 00:21:44;;;;;;;;;13.75;12.00;;;;;10.81;51.47;101486.38;5272584;26;44640;-75
2024/04/24 00:24:14;;;;;;;;;15.25;11.50;;;;;10.84;51.70;101498.47;5319715;26;69114;-74
2024/04/24 00:26:40;;;;;;;;;12.00;9.50;;;;;10.77;51.68;101482.41;5319292;26;44322;-75
2024/04/24 00:29:05;;;;;;;;;15.25;9.50;;;;;10.66;50.58;101465.00;5295280;26;43698;-74
2024/04/24 00:31:30;;;;;;;;;16.25;13.00;;;;;10.64;51.49;101469.66;5330954;26;59370;-74
2024/04/24 00:33:56;;;;;;;;;16.25;13.00;;;;;10.77;51.47;101487.72;5337653;26;58312;-74
2024/04/24 00:36:21;;;;;;;;;14.00;11.75;;;;;10.63;51.92;101465.34;5296179;26;48455;-73
2024/04/24 00:38:47;;;;;;;;;14.25;11.25;;;;;10.72;51.69;101479.44;5325293;26;44049;-74
2024/04/24 00:41:12;;;;;;;;;23.75;12.50;;;;;10.72;51.87;101482.09;5328753;26;55550;-74
2024/04/24 00:43:37;;;;;;;;;14.75;13.00;;;;;10.71;52.02;101465.31;5330156;26;44043;-75
2024/04/24 00:46:03;;;;;;;;;17.50;11.75;;;;;10.61;52.24;101462.03;5334797;26;67585;-74
2024/04/24 00:48:28;;;;;;;;;14.50;13.00;;;;;10.66;51.83;101472.16;5305969;26;44014;-74
2024/04/24 00:50:54;;;;;;;;;14.00;12.50;;;;;10.61;51.87;101459.38;5333031;26;67303;-75
2024/04/24 00:53:19;;;;;;;;;15.00;10.00;;;;;10.62;52.47;101461.88;5292504;26;59472;-74
2024/04/24 00:55:45;;;;;;;;;18.00;14.00;;;;;10.59;52.17;101456.06;5325563;26;44084;-74
2024/04/24 00:58:12;;;;;;;;;14.75;11.25;;;;;10.59;53.28;101458.72;5325696;26;44100;-75
2024/04/24 01:00:37;;;;;;;;;12.00;12.00;;;;;10.56;52.66;101453.75;5324458;26;44009;-74
2024/04/24 01:03:03;;;;;;;;;13.75;12.00;;;;;10.53;53.43;101457.53;5317571;26;71366;-74
2024/04/24 01:05:30;;;;;;;;;11.75;9.50;;;;;10.55;53.52;101460.03;5248607;27;44005;-73
2024/04/24 01:07:55;;;;;;;;;15.75;9.00;;;;;10.42;53.18;101437.53;5308597;26;44100;-73
2024/04/24 01:10:21;;;;;;;;;10.75;9.00;;;;;10.40;53.63;101444.81;5329086;26;43976;-73
2024/04/24 01:12:48;;;;;;;;;10.25;8.25;;;;;10.51;53.97;101454.22;5287259;26;44745;-73
2024/04/24 01:15:13;;;;;;;;;12.50;8.00;;;;;10.50;52.85;101460.53;5325836;26;44032;-75
2024/04/24 01:17:39;;;;;;;;;11.25;9.00;;;;;10.47;54.21;101453.75;5336827;26;43855;-73
2024/04/24 01:20:05;;;;;;;;;12.25;7.00;;;;;10.42;54.69;101441.97;5325070;26;43529;-74
2024/04/24 01:22:33;;;;;;;;;9.00;8.00;;;;;10.43;54.23;101446.28;5252022;26;45279;-74
2024/04/24 01:25:26;;;;;;;;;8.50;8.50;;;;;10.36;54.57;101446.91;5326625;26;43891;-74
2024/04/24 01:27:52;;;;;;;;;8.75;7.25;;;;;10.24;55.64;101435.00;5324298;26;43762;-74
2024/04/24 01:30:17;;;;;;;;;10.25;8.50;;;;;10.16;55.83;101417.25;5287522;26;53703;-74
2024/04/24 01:32:42;;;;;;;;;12.75;8.00;;;;;10.13;55.78;101417.59;5321180;26;58952;-73
2024/04/24 01:35:08;;;;;;;;;12.25;8.00;;;;;10.07;55.93;101413.78;5332533;26;67345;-74
2024/04/24 01:37:33;;;;;;;;;9.00;7.00;;;;;10.05;56.66;101417.56;5304417;26;50801;-73
2024/04/24 01:39:58;;;;;;;;;10.50;8.00;;;;;10.16;56.65;101446.41;5340179;26;55465;-74
2024/04/24 01:42:24;;;;;;;;;11.00;7.75;;;;;10.13;57.25;101441.44;5341439;26;68101;-73
2024/04/24 01:44:50;;;;;;;;;11.00;9.25;;;;;10.11;56.81;101437.31;5327066;26;43673;-74
2024/04/24 01:47:15;;;;;;;;;13.75;12.00;;;;;10.07;57.49;101440.28;5275189;26;43742;-72
2024/04/24 01:49:40;;;;;;;;;13.50;9.50;;;;;10.04;57.77;101423.88;5324842;26;43827;-73
2024/04/24 01:52:06;;;;;;;;;10.50;8.50;;;;;9.92;57.79;101413.59;5327104;26;68778;-73
2024/04/24 01:54:31;;;;;;;;;12.00;8.75;;;;;10.05;58.23;101438.78;5325318;26;43633;-73
2024/04/24 01:56:57;;;;;;;;;19.00;10.50;;;;;10.01;57.57;101435.63;5323434;26;63097;-72
2024/04/24 01:59:22;;;;;;;;;12.00;7.00;;;;;9.93;58.37;101425.03;5323945;26;43775;-73
2024/04/24 02:01:49;;;;;;;;;15.50;9.75;;;;;9.96;57.75;101422.06;5341941;26;44268;-74
2024/04/24 02:04:14;;;;;;;;;9.50;9.50;;;;;9.93;58.30;101425.03;5325111;26;44084;-72
2024/04/24 02:06:40;;;;;;;;;10.00;8.75;;;;;9.94;58.54;101423.19;5323796;26;49881;-72
2024/04/24 02:09:05;;;;;;;;;12.75;8.00;;;;;9.94;58.53;101429.34;5323302;26;44112;-72
2024/04/24 02:11:31;;;;;;;;;10.25;6.50;;;;;9.91;58.53;101417.22;5271628;26;63266;-72
2024/04/24 02:13:57;;;;;;;;;7.50;7.00;;;;;9.83;58.93;101408.44;5323903;26;43749;-71
2024/04/24 02:16:22;;;;;;;;;8.50;6.50;;;;;9.92;58.77;101415.44;5324938;26;43613;-74
2024/04/24 02:18:48;;;;;;;;;7.75;6.00;;;;;9.78;58.69;101401.00;5328889;26;43816;-72
2024/04/24 02:21:13;;;;;;;;;10.00;8.00;;;;;9.90;58.61;101420.88;5324532;26;51210;-74
2024/04/24 02:23:38;;;;;;;;;8.50;8.00;;;;;9.88;58.92;101412.25;5327497;26;64424;-73
2024/04/24 02:26:05;;;;;;;;;8.00;7.75;;;;;9.88;58.36;101411.44;5323620;26;44443;-73
2024/04/24 02:28:31;;;;;;;;;8.50;6.00;;;;;9.85;58.10;101409.13;5331700;26;44218;-73
2024/04/24 02:30:56;;;;;;;;;11.50;8.00;;;;;9.77;58.06;101396.69;5235817;26;46039;-73
2024/04/24 02:33:22;;;;;;;;;6.25;6.00;;;;;9.73;58.19;101390.06;5334307;26;60510;-73
2024/04/24 02:35:47;;;;;;;;;7.50;5.50;;;;;9.78;58.80;101395.69;5326108;26;43766;-74
2024/04/24 02:38:13;;;;;;;;;7.50;6.00;;;;;9.87;58.92;101412.44;5327798;26;53353;-73
2024/04/24 02:40:38;;;;;;;;;9.00;6.00;;;;;9.86;58.48;101413.44;5324950;26;44258;-73
2024/04/24 02:43:04;;;;;;;;;15.25;8.50;;;;;9.72;58.21;101388.41;5345709;26;43949;-73
2024/04/24 02:45:29;;;;;;;;;4.00;4.00;;;;;9.83;58.58;101414.56;5324063;26;47851;-74
2024/04/24 02:47:55;;;;;;;;;12.25;6.75;;;;;9.81;59.25;101411.25;5336425;26;46680;-74
2024/04/24 02:50:20;;;;;;;;;7.25;7.25;;;;;9.65;59.06;101385.56;5329226;26;44742;-73
2024/04/24 02:52:46;;;;;;;;;6.00;6.00;;;;;9.60;58.79;101377.28;5304041;26;43625;-73
2024/04/24 02:55:11;;;;;;;;;8.00;6.00;;;;;9.71;58.96;101398.16;5337885;26;43912;-73
2024/04/24 02:57:36;;;;;;;;;11.00;4.25;;;;;9.60;58.73;101375.47;5294557;26;43794;-74
2024/04/24 03:00:02;;;;;;;;;6.75;5.00;;;;;9.59;58.31;101381.78;5324035;26;52388;-74
2024/04/24 03:02:28;;;;;;;;;9.00;6.50;;;;;9.70;59.04;101404.44;5326526;26;43800;-73
2024/04/24 03:04:54;;;;;;;;;6.25;6.25;;;;;9.70;58.76;101400.97;5326443;26;45887;-75
2024/04/24 03:07:19;;;;;;;;;8.25;6.75;;;;;9.56;58.79;101383.91;5326326;26;43827;-73
2024/04/24 03:09:44;;;;;;;;;7.75;5.50;;;;;9.64;59.29;101394.50;5325345;26;66451;-73
2024/04/24 03:12:10;;;;;;;;;6.25;3.25;;;;;9.59;59.31;101389.72;5294829;26;63192;-73
2024/04/24 03:14:35;;;;;;;;;5.50;5.50;;;;;9.49;59.33;101367.84;5296160;26;44031;-72
2024/04/24 03:17:01;;;;;;;;;9.50;4.25;;;;;9.61;58.78;101384.25;5318681;26;54097;-73
2024/04/24 03:19:27;;;;;;;;;9.25;4.25;;;;;9.60;59.07;101382.59;5315808;26;44115;-74
2024/04/24 03:21:53;;;;;;;;;4.00;4.00;;;;;9.60;58.78;101380.78;5314816;26;44031;-73
2024/04/24 03:24:18;;;;;;;;;7.75;4.00;;;;;9.59;59.17;101370.34;5314759;26;44059;-74
2024/04/24 03:26:43;;;;;;;;;6.25;5.00;;;;;9.56;59.09;101368.84;5313541;26;63759;-73
2024/04/24 03:29:12;;;;;;;;;7.00;6.25;;;;;9.57;58.96;101374.97;5314845;26;68152;-73
2024/04/24 03:31:37;;;;;;;;;5.25;4.25;;;;;9.45;59.00;101350.59;5328964;26;45073;-73
2024/04/24 03:34:03;;;;;;;;;7.00;3.00;;;;;9.58;58.64;101372.16;5286573;26;49164;-73
2024/04/24 03:36:28;;;;;;;;;2.75;2.75;;;;;9.57;59.38;101364.38;5316101;26;44478;-73
2024/04/24 03:38:55;;;;;;;;;5.50;3.75;;;;;9.56;58.56;101370.66;5328794;26;57284;-74
2024/04/24 03:41:21;;;;;;;;;6.75;3.75;;;;;9.56;58.75;101362.72;5333242;26;43792;-73
2024/04/24 03:43:47;;;;;;;;;8.00;4.00;;;;;9.40;58.99;101334.38;5333884;26;43751;-73
2024/04/24 03:46:12;;;;;;;;;5.50;3.25;;;;;9.55;59.18;101363.72;5340098;26;43842;-73
2024/04/24 03:48:37;;;;;;;;;6.00;5.00;;;;;9.48;59.03;101353.78;5326192;26;43831;-73
2024/04/24 03:51:03;;;;;;;;;5.25;4.00;;;;;9.53;58.66;101361.25;5338638;26;63645;-75
2024/04/24 03:53:28;;;;;;;;;4.00;4.00;;;;;9.48;59.38;101364.38;5338221;26;63652;-73
2024/04/24 03:55:54;;;;;;;;;4.00;3.00;;;;;9.47;58.94;101360.06;5339292;26;66697;-74
2024/04/24 03:58:19;;;;;;;;;5.00;2.00;;;;;9.50;58.46;101366.03;5333333;26;68669;-74
2024/04/24 04:00:44;;;;;;;;;5.00;3.25;;;;;9.44;58.42;101359.53;5326631;26;50575;-74
2024/04/24 04:03:10;;;;;;;;;4.25;3.75;;;;;9.40;58.67;101356.41;5341599;26;60198;-73
2024/04/24 04:05:36;;;;;;;;;4.00;3.50;;;;;9.45;59.41;101362.03;5343626;26;63988;-73
2024/04/24 04:08:01;;;;;;;;;7.50;3.25;;;;;9.44;59.12;101357.72;5296249;26;44224;-73
2024/04/24 04:10:27;;;;;;;;;6.75;3.00;;;;;9.40;58.67;101355.56;5326097;26;44028;-73
2024/04/24 04:12:53;;;;;;;;;6.75;3.00;;;;;9.41;58.81;101358.06;5309961;26;43738;-73
2024/04/24 04:15:18;;;;;;;;;4.50;3.00;;;;;9.43;59.50;101364.03;5336732;26;43920;-73
2024/04/24 04:17:45;;;;;;;;;5.50;4.00;;;;;9.40;59.32;101359.06;5327880;26;57608;-75
2024/04/24 04:20:10;;;;;;;;;7.25;5.50;;;;;9.28;58.53;101341.81;5334409;26;44088;-73
2024/04/24 04:22:35;;;;;;;;;8.00;3.00;;;;;9.39;58.98;101364.50;5341234;26;44039;-74
2024/04/24 04:25:01;;;;;;;;;6.25;2.75;;;;;9.38;58.69;101360.19;5326580;26;43601;-74
2024/04/24 04:27:29;;;;;;;;;3.25;3.25;;;;;9.23;59.23;101342.28;5330585;26;44164;-75
2024/04/24 04:29:54;;;;;;;;;3.75;3.00;;;;;9.25;59.58;101350.91;5299129;26;44332;-73
2024/04/24 04:32:20;;;;;;;;;3.50;2.25;;;;;9.21;58.93;101341.63;5332304;26;43767;-73
2024/04/24 04:34:46;;;;;;;;;1.50;1.50;;;;;9.34;58.95;101367.63;5312336;26;43902;-74
2024/04/24 04:37:12;;;;;;;;;11.00;2.75;;;;;9.32;59.08;101370.44;5327155;26;44853;-74
2024/04/24 04:39:37;;;;;;;;;4.00;2.50;;;;;9.29;59.12;101365.47;5318156;26;44186;-74
2024/04/24 04:42:03;;;;;;;;;4.50;3.00;;;;;9.28;59.31;101363.81;5281744;26;44077;-74
2024/04/24 04:44:29;;;;;;;;;6.00;3.00;;;;;9.29;59.08;101368.09;5315740;26;43970;-74
2024/04/24 04:46:54;;;;;;;;;5.25;3.00;;;;;9.13;59.32;101347.72;5292311;26;46209;-74
2024/04/24 04:49:19;;;;;;;;;6.00;3.00;;;;;9.28;58.92;101369.09;5311860;26;48167;-74
2024/04/24 04:51:47;;;;;;;;;4.75;3.25;;;;;9.23;59.29;101360.00;5318616;26;44023;-74
2024/04/24 04:54:13;;;;;;;;;4.25;4.00;;;;;9.12;58.89;101346.06;5280306;26;44253;-74
2024/04/24 04:56:38;;;;;;;;;5.25;3.00;;;;;9.26;58.92;101368.44;5331850;26;53219;-74
2024/04/24 04:59:04;;;;;;;;;3.75;3.75;;;;;9.14;58.92;101353.84;5320933;26;66162;-73
2024/04/24 05:01:29;;;;;;;;;6.00;3.75;;;;;9.12;58.99;101355.81;5327019;26;50349;-74
2024/04/24 05:03:54;;;;;;;;;3.50;2.25;;;;;9.15;59.50;101350.19;5313301;26;65163;-74
2024/04/24 05:06:20;;;;;;;;;6.50;3.25;;;;;9.25;59.05;101371.25;5325837;26;66837;-75
2024/04/24 05:08:45;;;;;;;;;7.25;3.25;;;;;9.24;59.32;101365.13;5275790;26;57031;-74
2024/04/24 05:11:10;;;;;;;;;7.00;2.00;;;;;9.24;59.29;101365.13;5319082;26;44116;-74
2024/04/24 05:13:36;;;;;;;;;3.00;2.00;;;;;9.23;59.30;101358.16;5347196;26;64152;-73
2024/04/24 05:16:01;;;;;;;;;3.00;2.75;;;;;9.23;59.41;101354.69;5340002;26;44611;-73
2024/04/24 05:18:27;;;;;;;;;11.75;3.00;;;;;9.21;59.16;101352.19;5327477;26;44385;-73
2024/04/24 05:20:53;;;;;;;;;8.00;3.00;;;;;9.24;58.85;101356.34;5285054;26;44045;-74
2024/04/24 05:23:18;;;;;;;;;6.50;4.25;;;;;9.25;59.10;101360.66;5328025;26;43865;-74
2024/04/24 05:25:52;;;;;;;;;4.50;4.25;;;;;9.24;59.00;101359.00;5336334;26;62341;-73
2024/04/24 05:31:01;;;;;;;;;5.00;3.00;;;;;9.24;59.12;101362.47;5328216;26;43854;-74
2024/04/24 05:33:26;;;;;;;;;3.25;3.25;;;;;9.25;59.07;101356.19;5333323;26;65391;-74
2024/04/24 05:35:52;;;;;;;;;7.00;3.00;;;;;9.25;59.41;101355.38;5335453;26;66573;-74
2024/04/24 05:38:18;;;;;;;;;6.75;4.25;;;;;9.25;59.57;101348.25;5276971;26;43835;-74
2024/04/24 05:40:43;;;;;;;;;6.00;5.25;;;;;9.33;59.20;101355.41;5342172;26;43553;-73
2024/04/24 05:43:09;;;;;;;;;5.25;5.25;;;;;9.30;59.33;101353.88;5351413;26;63383;-74
2024/04/24 05:45:34;;;;;;;;;6.75;5.00;;;;;9.26;59.95;101343.78;5289391;26;43847;-73
2024/04/24 05:48:01;;;;;;;;;7.50;5.50;;;;;9.37;59.37;101351.44;5353413;26;43600;-74
2024/04/24 05:50:26;;;;;;;;;6.00;3.50;;;;;9.36;59.00;101351.59;5348498;26;43681;-73
2024/04/24 05:52:52;;;;;;;;;9.00;5.00;;;;;9.23;58.99;101339.63;5332756;26;49108;-73
2024/04/24 05:55:17;;;;;;;;;4.75;4.75;;;;;9.37;59.32;101345.28;5340513;26;44261;-73
2024/04/24 05:57:43;;;;;;;;;3.50;3.50;;;;;9.36;59.45;101341.84;5295446;26;43760;-73
2024/04/24 06:00:09;;;;;;;;;6.00;4.25;;;;;9.28;59.68;101332.03;5326291;26;43714;-73
2024/04/24 06:02:34;;;;;;;;;5.00;5.00;;;;;9.40;59.15;101343.16;5324577;26;44299;-73
2024/04/24 06:05:03;;;;;;;;;5.00;4.00;;;;;9.37;59.53;101334.72;5325837;26;67962;-74
2024/04/24 06:07:29;;;;;;;;;6.00;2.75;;;;;9.28;59.57;101323.28;5334759;26;43980;-74
2024/04/24 06:09:54;;;;;;;;;6.50;3.50;;;;;9.43;59.49;101342.00;5291563;26;43940;-74
2024/04/24 06:12:20;;;;;;;;;7.50;3.25;;;;;9.44;59.33;101341.00;5322111;26;57030;-73
2024/04/24 06:14:45;;;;;;;;;4.25;4.25;;;;;9.31;58.95;101321.13;5323883;26;44390;-73
2024/04/24 06:17:11;;;;;;;;;3.00;2.75;;;;;9.46;59.02;101345.16;5331665;26;44048;-74
2024/04/24 06:19:37;;;;;;;;;2.00;2.00;;;;;9.46;59.07;101349.63;5325051;26;43962;-73
2024/04/24 06:22:03;;;;;;;;;4.25;3.00;;;;;9.42;58.88;101337.69;5338566;26;43891;-73
2024/04/24 06:24:28;;;;;;;;;4.00;3.00;;;;;9.32;58.58;101330.72;5280039;26;44061;-73
2024/04/24 06:26:54;;;;;;;;;5.00;5.00;;;;;9.44;58.90;101343.66;5293095;26;43918;-73
2024/04/24 06:29:19;;;;;;;;;8.50;3.25;;;;;9.40;58.94;101343.16;5324375;26;43686;-73
2024/04/24 06:31:45;;;;;;;;;6.00;3.50;;;;;9.46;58.95;101355.75;5340227;26;55304;-73
2024/04/24 06:34:10;;;;;;;;;5.50;3.00;;;;;9.40;59.15;101335.22;5323780;26;67020;-74
2024/04/24 06:36:35;;;;;;;;;3.00;3.00;;;;;9.48;59.06;101348.47;5326859;26;46655;-73
2024/04/24 06:39:01;;;;;;;;;4.00;2.75;;;;;9.43;58.99;101332.25;5331671;26;62765;-73
2024/04/24 06:41:26;;;;;;;;;3.25;3.00;;;;;9.50;58.47;101343.03;5354680;26;60249;-73
2024/04/24 06:43:54;;;;;;;;;2.25;2.25;;;;;9.50;58.67;101332.44;5299431;26;67659;-75
2024/04/24 06:46:20;;;;;;;;;2.00;2.00;;;;;9.48;58.28;101337.09;5327247;26;43810;-71
2024/04/24 06:48:46;;;;;;;;;2.25;1.00;;;;;9.49;58.64;101338.75;5328754;26;43463;-71
2024/04/24 06:51:11;;;;;;;;;3.75;2.50;;;;;9.44;58.75;101318.03;5350112;26;65633;-71
2024/04/24 06:53:36;;;;;;;;;17.25;12.00;;;;;9.52;58.30;101332.28;5339942;26;70552;-72
2024/04/24 06:56:03;;;;;;;;;7.00;3.00;;;;;9.50;58.59;101324.50;5333251;26;58643;-71
2024/04/24 06:58:31;;;;;;;;;2.75;2.75;;;;;9.55;57.91;101334.59;5288941;26;44109;-72
2024/04/24 07:00:56;;;;;;;;;7.25;3.25;;;;;9.56;58.35;101330.94;5321693;26;43839;-71
2024/04/24 07:03:23;;;;;;;;;6.25;2.25;;;;;9.57;58.49;101335.25;5277595;26;67574;-71
2024/04/24 07:05:49;;;;;;;;;5.75;2.25;;;;;9.59;57.69;101334.13;5327014;26;44175;-73
2024/04/24 07:08:14;;;;;;;;;0.00;0.00;;;;;9.55;58.35;101318.72;5335326;26;43683;-72
2024/04/24 07:10:40;;;;;;;;;2.00;1.00;;;;;9.61;57.78;101334.78;5325693;26;61183;-71
2024/04/24 07:13:05;;;;;;;;;7.25;2.50;;;;;9.61;57.97;101326.00;5325183;26;69834;-71
2024/04/24 07:15:30;;;;;;;;;7.00;2.00;;;;;9.63;57.82;101329.31;5294051;26;67672;-72
2024/04/24 07:17:56;;;;;;;;;2.50;2.50;;;;;9.65;58.09;101332.63;5325696;26;63841;-73
2024/04/24 07:20:21;;;;;;;;;4.00;2.00;;;;;9.65;57.39;101335.25;5291435;26;58430;-71
2024/04/24 07:22:47;;;;;;;;;6.25;2.00;;;;;9.69;57.73;101336.59;5323795;26;66244;-70
2024/04/24 07:25:12;;;;;;;;;3.25;2.25;;;;;9.71;57.21;101329.31;5323107;26;43609;-71
2024/04/24 07:27:37;;;;;;;;;2.75;1.75;;;;;9.74;57.52;101328.16;5323956;26;62680;-71
2024/04/24 07:30:05;;;;;;;;;6.50;1.00;;;;;9.77;56.77;101330.50;5323114;26;68635;-71
2024/04/24 07:32:31;;;;;;;;;3.00;1.25;;;;;9.75;56.86;101322.69;5325183;26;44323;-73
2024/04/24 07:34:56;;;;;;;;;6.00;2.00;;;;;9.81;57.05;101328.31;5325629;26;43689;-72
2024/04/24 07:37:22;;;;;;;;;7.00;1.75;;;;;9.86;57.16;101318.09;5315160;26;52553;-70
2024/04/24 07:39:47;;;;;;;;;3.75;2.00;;;;;9.89;56.90;101323.06;5299391;26;44150;-72
2024/04/24 07:42:13;;;;;;;;;1.75;1.00;;;;;9.85;56.75;101314.59;5293941;26;68752;-71
2024/04/24 07:44:42;;;;;;;;;3.00;1.00;;;;;9.86;56.46;101324.19;5272155;26;44003;-71
2024/04/24 07:47:08;;;;;;;;;2.25;2.00;;;;;9.87;56.39;101314.44;5285096;26;44061;-72
2024/04/24 07:49:34;;;;;;;;;1.25;1.25;;;;;9.94;56.20;101333.13;5330472;26;43985;-71
2024/04/24 07:51:59;;;;;;;;;4.50;3.00;;;;;9.96;56.91;101316.09;5321675;26;70199;-72
2024/04/24 07:54:24;;;;;;;;;6.00;2.75;;;;;10.02;55.83;101325.19;5332961;26;43697;-71
2024/04/24 07:56:50;;;;;;;;;1.00;1.00;;;;;10.07;56.08;101330.81;5338698;26;63697;-72
2024/04/24 07:59:15;;;;;;;;;1.00;1.00;;;;;10.14;56.24;101320.38;5289111;26;61365;-70
2024/04/24 08:01:40;;;;;;;;;2.25;2.00;;;;;10.19;56.08;101312.75;5330430;26;46445;-70
2024/04/24 08:04:06;;;;;;;;;2.50;0.50;;;;;10.24;55.11;101320.22;5338006;26;66904;-72
2024/04/24 08:06:31;;;;;;;;;8.00;6.00;;;;;10.27;54.45;101314.59;5296045;26;1011692;-71
2024/04/24 08:08:57;;;;;;;;;1.25;1.25;;;;;10.30;55.45;101314.25;5325609;26;53678;-71
2024/04/24 08:11:22;;;;;;;;;3.25;1.50;;;;;10.38;54.37;101310.75;5330501;26;70082;-71
2024/04/24 08:13:47;;;;;;;;;1.75;1.25;;;;;10.46;55.24;101305.44;5325090;26;67175;-71
2024/04/24 08:16:13;;;;;;;;;3.50;2.00;;;;;10.58;53.75;101305.91;5325063;26;64208;-70
2024/04/24 08:18:38;;;;;;;;;3.00;2.25;;;;;10.66;54.06;101297.13;5299662;26;67153;-71
2024/04/24 08:21:04;;;;;;;;;2.25;2.25;;;;;10.69;53.34;101304.75;5324247;26;71880;-71
2024/04/24 08:23:29;;;;;;;;;3.00;3.00;;;;;10.72;53.97;101307.03;5237100;26;43727;-71
2024/04/24 08:25:55;;;;;;;;;5.00;0.00;;;;;10.68;52.86;101295.94;5290579;26;61048;-71
2024/04/24 08:28:20;;;;;;;;;7.75;2.00;;;;;10.67;52.92;101296.94;5324511;26;43944;-71
2024/04/24 08:30:45;;;;;;;;;3.50;2.00;;;;;10.63;54.14;101296.47;5287710;26;66273;-71
2024/04/24 08:33:11;;;;;;;;;2.75;2.00;;;;;10.64;54.12;101295.47;5325078;26;68278;-71
2024/04/24 08:35:36;;;;;;;;;5.00;1.00;;;;;10.75;53.99;101312.00;5289653;26;65322;-74
2024/04/24 08:38:01;;;;;;;;;1.25;1.00;;;;;10.75;53.50;101310.16;5329927;26;54968;-71
2024/04/24 08:40:28;;;;;;;;;2.50;1.00;;;;;10.75;52.58;101301.41;5345508;26;62931;-72
2024/04/24 08:42:53;;;;;;;;;1.50;1.50;;;;;10.82;52.05;101304.16;5341630;26;45070;-72
2024/04/24 08:45:19;;;;;;;;;3.00;2.00;;;;;10.86;51.64;101303.66;5298260;26;43625;-71
2024/04/24 08:47:44;;;;;;;;;4.50;3.00;;;;;10.94;50.68;101286.88;5277132;26;43549;-72
2024/04/24 08:50:10;;;;;;;;;4.00;3.50;;;;;10.97;51.75;101272.44;5270250;26;67333;-74
2024/04/24 08:52:37;;;;;;;;;4.75;2.00;;;;;11.10;51.21;101275.34;5298858;26;43538;-72
2024/04/24 08:55:03;;;;;;;;;3.00;2.00;;;;;11.22;51.48;101276.59;5275166;26;43619;-72
2024/04/24 08:57:29;;;;;;;;;6.00;3.25;;;;;11.26;51.70;101269.13;5317855;26;43941;-71
2024/04/24 08:59:59;;;;;;;;;3.00;3.00;;;;;11.30;50.99;101274.91;5344982;26;44309;-71
2024/04/24 09:02:26;;;;;;;;;3.00;3.00;;;;;11.33;50.77;101275.38;5290380;26;44134;-71
2024/04/24 09:04:52;;;;;;;;;4.75;1.25;;;;;11.33;50.92;101283.34;5303852;26;43855;-71
2024/04/24 09:07:18;;;;;;;;;2.00;2.00;;;;;11.43;50.16;101283.13;5303320;26;69809;-71
2024/04/24 09:09:43;;;;;;;;;2.75;1.75;;;;;11.46;48.61;101281.94;5324011;26;44317;-71
2024/04/24 09:12:09;;;;;;;;;2.75;1.00;;;;;11.48;48.68;101259.53;5324280;26;43606;-72
2024/04/24 09:14:34;;;;;;;;;2.25;2.00;;;;;11.51;48.95;101271.59;5295138;26;43661;-71
2024/04/24 09:17:00;;;;;;;;;2.50;1.00;;;;;11.51;47.96;101269.78;5267185;26;43846;-74
2024/04/24 09:19:25;;;;;;;;;53.00;41.50;;;;;11.48;48.72;101269.31;5327456;26;44474;-72
2024/04/24 09:21:51;;;;;;;;;1.00;1.00;;;;;11.38;48.18;101270.38;5296759;26;44171;-72
2024/04/24 09:24:16;;;;;;;;;4.75;1.25;;;;;11.41;49.47;101271.03;5329040;26;60918;-71
2024/04/24 09:26:42;;;;;;;;;5.50;2.00;;;;;11.36;48.62;101264.41;5296939;26;43672;-72
2024/04/24 09:29:11;;;;;;;;;2.75;1.50;;;;;11.34;48.99;101269.06;5275384;26;43724;-72
2024/04/24 09:31:37;;;;;;;;;3.50;3.00;;;;;11.29;48.99;101262.63;5328293;26;44166;-74
2024/04/24 09:34:03;;;;;;;;;2.00;2.00;;;;;11.30;48.32;101266.94;5302144;26;43885;-71
2024/04/24 09:36:30;;;;;;;;;5.25;2.00;;;;;11.28;49.60;101260.97;5329418;26;66070;-73
2024/04/24 09:38:56;;;;;;;;;5.00;1.75;;;;;11.29;48.24;101263.47;5297466;26;43835;-72
2024/04/24 09:41:21;;;;;;;;;3.00;2.25;;;;;11.35;47.88;101270.72;5254669;26;70155;-73
2024/04/24 09:43:46;;;;;;;;;7.25;2.00;;;;;11.35;48.72;101268.06;5266464;26;43687;-73
2024/04/24 09:46:12;;;;;;;;;4.75;2.00;;;;;11.45;48.01;101261.69;5340288;26;67245;-74
2024/04/24 09:48:39;;;;;;;;;2.25;1.50;;;;;11.50;46.44;101262.84;5269621;26;44200;-72
2024/04/24 09:51:09;;;;;;;;;40.00;36.50;;;;;11.58;47.11;101266.44;5309828;26;44410;-72
2024/04/24 09:53:34;;;;;;;;;4.50;3.00;;;;;11.66;47.14;101259.19;5324514;26;43910;-71
2024/04/24 09:56:24;;;;;;;;;3.00;2.00;;;;;11.79;46.84;101263.91;5252356;26;65055;-72
2024/04/24 09:58:50;;;;;;;;;2.75;2.00;;;;;11.87;47.19;101267.50;5311151;26;45236;-73
2024/04/24 10:01:15;;;;;;;;;5.75;1.00;;;;;11.89;45.19;101261.00;5286010;26;44959;-72
2024/04/24 10:03:41;;;;;;;;;2.00;1.00;;;;;11.88;45.39;101256.72;5312415;26;43974;-71
2024/04/24 10:06:07;;;;;;;;;1.00;1.00;;;;;11.88;45.79;101254.06;5301113;26;67234;-72
2024/04/24 10:08:34;;;;;;;;;1.00;1.00;;;;;11.89;45.89;101260.19;5239364;26;46269;-73
2024/04/24 10:11:01;;;;;;;;;3.00;2.75;;;;;11.92;45.24;101246.53;5296301;26;44718;-71
2024/04/24 10:13:27;;;;;;;;;5.50;2.75;;;;;11.94;46.05;101250.66;5321030;26;43790;-71
2024/04/24 10:15:58;;;;;;;;;4.25;3.25;;;;;12.04;45.70;101252.28;5262796;26;43594;-71
2024/04/24 10:18:25;;;;;;;;;27.75;24.75;;;;;12.10;45.32;101248.88;5325041;26;43637;-71
2024/04/24 10:20:50;;;;;;;;;15.25;9.75;;;;;12.24;45.12;101248.06;5250019;26;44104;-72
2024/04/24 10:23:15;;;;;;;;;4.00;2.00;;;;;12.36;44.37;101245.78;5266624;26;66231;-70
2024/04/24 10:25:41;;;;;;;;;1.25;1.25;;;;;12.44;44.16;101252.81;5308231;26;54876;-72
2024/04/24 10:28:06;;;;;;;;;2.50;2.00;;;;;12.47;43.82;101247.13;5310638;26;43890;-72
2024/04/24 10:30:34;;;;;;;;;2.00;2.00;;;;;12.49;44.95;101246.97;5298628;26;43605;-75
2024/04/24 10:32:59;;;;;;;;;1.75;1.00;;;;;12.55;44.60;101248.88;5290234;26;43835;-75
2024/04/24 10:35:26;;;;;;;;;3.75;2.00;;;;;12.58;44.32;101229.88;5302852;26;50626;-78
2024/04/24 10:37:57;;;;;;;;;2.00;1.00;;;;;12.62;43.99;101231.16;5296325;26;44439;-72
2024/04/24 10:40:29;;;;;;;;;1.25;1.00;;;;;12.68;43.07;101225.09;5304028;26;43894;-70
2024/04/24 10:43:01;;;;;;;;;1.00;1.00;;;;;12.73;43.44;101229.03;5296254;26;43732;-71
2024/04/24 10:45:26;;;;;;;;;3.00;1.75;;;;;12.73;44.04;101216.56;5304318;26;44222;-71
2024/04/24 10:47:52;;;;;;;;;1.00;1.00;;;;;12.69;42.56;101218.78;5271164;26;44882;-71
2024/04/24 10:50:18;;;;;;;;;2.50;1.00;;;;;12.62;43.64;101220.53;5297651;26;44111;-71
2024/04/24 10:52:54;;;;;;;;;1.00;1.00;;;;;12.51;42.94;101219.19;5272992;26;44451;-71
2024/04/24 10:55:19;;;;;;;;;4.75;1.00;;;;;12.43;42.99;101223.78;5278046;26;44026;-70
2024/04/24 10:57:54;;;;;;;;;3.00;1.50;;;;;12.31;43.24;101226.91;5301004;26;44025;-71
2024/04/24 11:00:23;;;;;;;;;1.75;1.25;;;;;12.25;43.31;101219.66;5298187;26;62807;-71
2024/04/24 11:02:51;;;;;;;;;3.00;3.00;;;;;12.21;44.88;101223.69;5278094;26;43993;-70
2024/04/24 11:05:20;;;;;;;;;2.50;2.50;;;;;12.16;44.79;101226.88;5302300;26;43902;-77
2024/04/24 11:08:02;;;;;;;;;1.75;1.75;;;;;12.11;44.39;101218.63;5266942;26;46921;-73
2024/04/24 11:10:28;;;;;;;;;1.75;1.00;;;;;12.10;45.20;101228.44;5271636;26;44508;-71
2024/04/24 11:12:53;;;;;;;;;3.00;2.00;;;;;12.12;44.78;101214.97;5282123;26;44151;-71
2024/04/24 11:15:25;;;;;;;;;4.50;1.25;;;;;12.19;43.92;101215.06;5291742;26;44258;-71
2024/04/24 11:17:51;;;;;;;;;4.50;1.50;;;;;12.23;44.04;101205.72;5289243;26;44082;-73
2024/04/24 11:20:17;;;;;;;;;4.25;2.00;;;;;12.29;44.43;101215.63;5310355;26;44158;-72
2024/04/24 11:22:43;;;;;;;;;7.00;3.50;;;;;12.33;43.97;101211.59;5297883;26;43705;-72
2024/04/24 11:25:11;;;;;;;;;1.00;1.00;;;;;12.34;43.85;101201.75;5270065;27;68463;-72